sensor_id;sensor_type;location;lat;lon;timestamp;pressure;altitude;pressure_sealevel;temperature;humidity
64053;BME280;50299;49.524;8.536;2022-10-16T00:01:33;100273.22;;;14.21;86.65
64053;BME280;50299;49.524;8.536;2022-10-16T00:04:00;100277.31;;;14.27;80.41
64053;BME280;50299;49.524;8.536;2022-10-16T00:06:27;100273.34;;;14.40;84.07
64053;BME280;50299;49.524;8.536;2022-10-16T00:08:55;100264.00;;;14.33;81.76
64053;BME280;50299;49.524;8.536;2022-10-16T00:11:30;100269.44;;;14.29;81.00
64053;BME280;50299;49.524;8.536;2022-10-16T00:14:03;100269.00;;;14.27;81.24
64053;BME280;50299;49.524;8.536;2022-10-16T00:16:34;100263.00;;;14.25;79.55
64053;BME280;50299;49.524;8.536;2022-10-16T00:19:00;100256.91;;;14.19;77.46
64053;BME280;50299;49.524;8.536;2022-10-16T00:21:28;100255.81;;;14.08;81.43
64053;BME280;50299;49.524;8.536;2022-10-16T00:24:00;100254.56;;;14.21;79.82
64053;BME280;50299;49.524;8.536;2022-10-16T00:26:29;100262.81;;;14.18;78.18
64053;BME280;50299;49.524;8.536;2022-10-16T00:28:56;100267.47;;;14.14;79.50
64053;BME280;50299;49.524;8.536;2022-10-16T00:31:23;100275.38;;;14.12;80.07
64053;BME280;50299;49.524;8.536;2022-10-16T00:33:50;100279.84;;;14.16;80.18
64053;BME280;50299;49.524;8.536;2022-10-16T00:36:20;100271.94;;;14.18;80.78
64053;BME280;50299;49.524;8.536;2022-10-16T00:38:46;100277.13;;;14.32;82.30
64053;BME280;50299;49.524;8.536;2022-10-16T00:41:16;100277.22;;;14.36;81.70
64053;BME280;50299;49.524;8.536;2022-10-16T00:43:45;100268.22;;;14.42;77.91
64053;BME280;50299;49.524;8.536;2022-10-16T00:46:21;100280.41;;;14.38;79.52
64053;BME280;50299;49.524;8.536;2022-10-16T00:48:54;100272.44;;;14.36;75.99
64053;BME280;50299;49.524;8.536;2022-10-16T00:51:27;100283.91;;;14.35;79.11
64053;BME280;50299;49.524;8.536;2022-10-16T00:53:56;100284.63;;;14.31;78.63
64053;BME280;50299;49.524;8.536;2022-10-16T00:56:23;100285.59;;;14.23;76.31
64053;BME280;50299;49.524;8.536;2022-10-16T00:58:49;100282.56;;;14.28;79.75
64053;BME280;50299;49.524;8.536;2022-10-16T01:01:16;100282.31;;;14.34;79.75
64053;BME280;50299;49.524;8.536;2022-10-16T01:03:42;100282.91;;;14.43;80.21
64053;BME280;50299;49.524;8.536;2022-10-16T01:06:20;100273.06;;;14.45;76.42
64053;BME280;50299;49.524;8.536;2022-10-16T01:11:44;100282.03;;;14.54;79.44
64053;BME280;50299;49.524;8.536;2022-10-16T01:14:20;100285.41;;;14.64;80.90
64053;BME280;50299;49.524;8.536;2022-10-16T01:16:53;100289.19;;;14.71;80.32
64053;BME280;50299;49.524;8.536;2022-10-16T01:22:08;100294.47;;;14.76;80.28
64053;BME280;50299;49.524;8.536;2022-10-16T01:24:40;100301.28;;;14.79;80.06
64053;BME280;50299;49.524;8.536;2022-10-16T01:27:14;100297.41;;;14.84;80.49
64053;BME280;50299;49.524;8.536;2022-10-16T01:34:59;100307.31;;;14.81;81.21
64053;BME280;50299;49.524;8.536;2022-10-16T01:37:35;100312.31;;;14.75;77.28
64053;BME280;50299;49.524;8.536;2022-10-16T01:40:07;100306.88;;;14.63;77.49
64053;BME280;50299;49.524;8.536;2022-10-16T01:42:40;100309.66;;;14.63;76.52
64053;BME280;50299;49.524;8.536;2022-10-16T01:45:08;100315.22;;;14.63;77.40
64053;BME280;50299;49.524;8.536;2022-10-16T01:47:37;100312.25;;;14.56;77.13
64053;BME280;50299;49.524;8.536;2022-10-16T01:50:05;100313.31;;;14.51;77.98
64053;BME280;50299;49.524;8.536;2022-10-16T01:52:35;100322.56;;;14.55;78.14
64053;BME280;50299;49.524;8.536;2022-10-16T01:55:05;100312.19;;;14.52;75.83
64053;BME280;50299;49.524;8.536;2022-10-16T01:57:36;100300.97;;;14.49;76.38
64053;BME280;50299;49.524;8.536;2022-10-16T02:00:36;100304.19;;;14.51;77.10
64053;BME280;50299;49.524;8.536;2022-10-16T02:03:04;100297.19;;;14.41;76.49
64053;BME280;50299;49.524;8.536;2022-10-16T02:05:45;100296.09;;;14.30;77.47
64053;BME280;50299;49.524;8.536;2022-10-16T02:08:12;100296.22;;;14.34;75.03
64053;BME280;50299;49.524;8.536;2022-10-16T02:10:39;100301.31;;;14.31;77.32
64053;BME280;50299;49.524;8.536;2022-10-16T02:13:09;100298.75;;;14.26;77.15
64053;BME280;50299;49.524;8.536;2022-10-16T02:15:37;100294.09;;;14.30;78.26
64053;BME280;50299;49.524;8.536;2022-10-16T02:18:04;100289.47;;;14.35;78.30
64053;BME280;50299;49.524;8.536;2022-10-16T02:20:36;100299.50;;;14.39;78.57
64053;BME280;50299;49.524;8.536;2022-10-16T02:23:06;100298.28;;;14.37;76.13
64053;BME280;50299;49.524;8.536;2022-10-16T02:25:37;100294.47;;;14.29;74.90
64053;BME280;50299;49.524;8.536;2022-10-16T02:30:36;100295.13;;;13.94;76.52
64053;BME280;50299;49.524;8.536;2022-10-16T02:33:07;100296.53;;;13.72;76.23
64053;BME280;50299;49.524;8.536;2022-10-16T02:35:37;100305.81;;;13.64;78.05
64053;BME280;50299;49.524;8.536;2022-10-16T02:38:05;100301.38;;;13.75;77.97
64053;BME280;50299;49.524;8.536;2022-10-16T02:40:33;100305.50;;;13.81;77.42
64053;BME280;50299;49.524;8.536;2022-10-16T02:42:59;100294.56;;;13.73;76.88
64053;BME280;50299;49.524;8.536;2022-10-16T02:45:26;100298.59;;;13.75;78.43
64053;BME280;50299;49.524;8.536;2022-10-16T02:47:52;100296.84;;;13.83;77.76
64053;BME280;50299;49.524;8.536;2022-10-16T02:50:19;100299.25;;;13.85;78.18
64053;BME280;50299;49.524;8.536;2022-10-16T02:52:45;100296.69;;;13.92;78.38
64053;BME280;50299;49.524;8.536;2022-10-16T02:55:12;100302.88;;;14.01;77.43
64053;BME280;50299;49.524;8.536;2022-10-16T02:57:38;100312.31;;;14.12;77.90
64053;BME280;50299;49.524;8.536;2022-10-16T03:00:12;100317.88;;;14.12;76.21
64053;BME280;50299;49.524;8.536;2022-10-16T03:02:40;100326.53;;;14.11;76.67
64053;BME280;50299;49.524;8.536;2022-10-16T03:05:07;100318.84;;;14.04;75.34
64053;BME280;50299;49.524;8.536;2022-10-16T03:07:34;100312.81;;;14.02;75.77
64053;BME280;50299;49.524;8.536;2022-10-16T03:10:01;100307.53;;;13.97;76.46
64053;BME280;50299;49.524;8.536;2022-10-16T03:12:28;100292.53;;;13.86;76.10
64053;BME280;50299;49.524;8.536;2022-10-16T03:14:56;100294.72;;;13.64;76.45
64053;BME280;50299;49.524;8.536;2022-10-16T03:17:23;100298.03;;;13.42;78.25
64053;BME280;50299;49.524;8.536;2022-10-16T03:19:50;100306.66;;;13.24;78.43
64053;BME280;50299;49.524;8.536;2022-10-16T03:22:17;100300.63;;;13.22;77.66
64053;BME280;50299;49.524;8.536;2022-10-16T03:24:43;100297.16;;;13.25;79.13
64053;BME280;50299;49.524;8.536;2022-10-16T03:27:10;100300.72;;;13.26;78.35
64053;BME280;50299;49.524;8.536;2022-10-16T03:29:36;100315.66;;;13.21;76.90
64053;BME280;50299;49.524;8.536;2022-10-16T03:32:02;100306.53;;;13.21;79.03
64053;BME280;50299;49.524;8.536;2022-10-16T03:34:29;100309.59;;;13.31;78.97
64053;BME280;50299;49.524;8.536;2022-10-16T03:36:55;100307.41;;;13.37;76.68
64053;BME280;50299;49.524;8.536;2022-10-16T03:39:22;100310.03;;;13.58;79.11
64053;BME280;50299;49.524;8.536;2022-10-16T03:41:48;100313.47;;;13.67;77.26
64053;BME280;50299;49.524;8.536;2022-10-16T03:44:15;100308.06;;;13.87;78.45
64053;BME280;50299;49.524;8.536;2022-10-16T03:46:42;100316.75;;;14.01;75.27
64053;BME280;50299;49.524;8.536;2022-10-16T03:49:08;100317.22;;;14.03;77.23
64053;BME280;50299;49.524;8.536;2022-10-16T03:51:35;100327.44;;;14.15;78.13
64053;BME280;50299;49.524;8.536;2022-10-16T03:54:02;100322.44;;;14.20;77.17
64053;BME280;50299;49.524;8.536;2022-10-16T03:56:28;100329.63;;;14.21;75.58
64053;BME280;50299;49.524;8.536;2022-10-16T03:58:54;100328.44;;;14.22;75.93
64053;BME280;50299;49.524;8.536;2022-10-16T04:01:21;100336.56;;;14.27;75.04
64053;BME280;50299;49.524;8.536;2022-10-16T04:03:47;100337.22;;;14.37;77.52
64053;BME280;50299;49.524;8.536;2022-10-16T04:06:16;100336.66;;;14.47;78.37
64053;BME280;50299;49.524;8.536;2022-10-16T04:08:43;100330.28;;;14.46;75.46
64053;BME280;50299;49.524;8.536;2022-10-16T04:11:10;100331.75;;;14.40;73.49
64053;BME280;50299;49.524;8.536;2022-10-16T04:13:36;100337.22;;;14.37;73.91
64053;BME280;50299;49.524;8.536;2022-10-16T04:16:03;100339.88;;;14.33;75.88
64053;BME280;50299;49.524;8.536;2022-10-16T04:18:30;100347.16;;;14.38;75.61
64053;BME280;50299;49.524;8.536;2022-10-16T04:20:56;100344.75;;;14.36;75.06
64053;BME280;50299;49.524;8.536;2022-10-16T04:23:22;100345.09;;;14.35;75.33
64053;BME280;50299;49.524;8.536;2022-10-16T04:25:50;100354.47;;;14.30;73.19
64053;BME280;50299;49.524;8.536;2022-10-16T04:28:17;100352.28;;;14.08;73.22
64053;BME280;50299;49.524;8.536;2022-10-16T04:30:43;100361.53;;;14.12;76.82
64053;BME280;50299;49.524;8.536;2022-10-16T04:33:09;100351.28;;;14.00;76.90
64053;BME280;50299;49.524;8.536;2022-10-16T04:35:36;100343.38;;;13.86;74.26
64053;BME280;50299;49.524;8.536;2022-10-16T04:38:02;100337.19;;;13.65;76.36
64053;BME280;50299;49.524;8.536;2022-10-16T04:40:29;100351.69;;;13.46;76.40
64053;BME280;50299;49.524;8.536;2022-10-16T04:42:59;100355.31;;;13.34;75.99
64053;BME280;50299;49.524;8.536;2022-10-16T04:45:25;100348.59;;;13.35;77.23
64053;BME280;50299;49.524;8.536;2022-10-16T04:47:52;100347.13;;;13.13;76.25
64053;BME280;50299;49.524;8.536;2022-10-16T04:50:18;100354.41;;;13.05;77.38
64053;BME280;50299;49.524;8.536;2022-10-16T04:52:45;100339.06;;;13.08;78.08
64053;BME280;50299;49.524;8.536;2022-10-16T04:55:11;100333.59;;;12.99;78.77
64053;BME280;50299;49.524;8.536;2022-10-16T04:57:38;100340.31;;;12.98;78.42
64053;BME280;50299;49.524;8.536;2022-10-16T05:00:05;100336.50;;;12.91;78.12
64053;BME280;50299;49.524;8.536;2022-10-16T05:02:34;100333.72;;;12.78;79.06
64053;BME280;50299;49.524;8.536;2022-10-16T05:05:01;100329.09;;;13.07;80.60
64053;BME280;50299;49.524;8.536;2022-10-16T05:07:27;100323.91;;;13.05;79.00
64053;BME280;50299;49.524;8.536;2022-10-16T05:09:54;100338.22;;;13.07;76.88
64053;BME280;50299;49.524;8.536;2022-10-16T05:12:20;100342.63;;;13.08;77.20
64053;BME280;50299;49.524;8.536;2022-10-16T05:14:47;100347.25;;;13.04;76.98
64053;BME280;50299;49.524;8.536;2022-10-16T05:17:13;100343.22;;;13.02;78.00
64053;BME280;50299;49.524;8.536;2022-10-16T05:19:40;100340.78;;;13.00;77.84
64053;BME280;50299;49.524;8.536;2022-10-16T05:22:06;100338.56;;;13.06;79.08
64053;BME280;50299;49.524;8.536;2022-10-16T05:24:33;100342.75;;;13.00;77.06
64053;BME280;50299;49.524;8.536;2022-10-16T05:26:59;100322.28;;;13.04;79.01
64053;BME280;50299;49.524;8.536;2022-10-16T05:29:26;100312.91;;;13.09;79.17
64053;BME280;50299;49.524;8.536;2022-10-16T05:31:53;100308.38;;;13.17;76.73
64053;BME280;50299;49.524;8.536;2022-10-16T05:34:20;100312.41;;;13.19;79.33
64053;BME280;50299;49.524;8.536;2022-10-16T05:36:46;100326.09;;;13.12;78.28
64053;BME280;50299;49.524;8.536;2022-10-16T05:39:15;100318.56;;;13.13;77.39
64053;BME280;50299;49.524;8.536;2022-10-16T05:41:42;100316.34;;;13.18;78.10
64053;BME280;50299;49.524;8.536;2022-10-16T05:44:08;100325.47;;;13.31;78.97
64053;BME280;50299;49.524;8.536;2022-10-16T05:46:35;100341.16;;;13.51;77.13
64053;BME280;50299;49.524;8.536;2022-10-16T05:49:02;100357.91;;;13.67;77.73
64053;BME280;50299;49.524;8.536;2022-10-16T05:51:28;100365.31;;;13.63;77.38
64053;BME280;50299;49.524;8.536;2022-10-16T05:53:54;100366.38;;;13.46;75.01
64053;BME280;50299;49.524;8.536;2022-10-16T05:56:21;100370.00;;;13.35;76.73
64053;BME280;50299;49.524;8.536;2022-10-16T05:58:47;100378.34;;;13.22;77.76
64053;BME280;50299;49.524;8.536;2022-10-16T06:01:18;100366.75;;;13.32;79.65
64053;BME280;50299;49.524;8.536;2022-10-16T06:03:45;100366.03;;;13.48;76.90
64053;BME280;50299;49.524;8.536;2022-10-16T06:06:13;100373.81;;;13.54;77.79
64053;BME280;50299;49.524;8.536;2022-10-16T06:08:41;100371.25;;;13.62;76.44
64053;BME280;50299;49.524;8.536;2022-10-16T06:11:10;100382.31;;;13.74;75.61
64053;BME280;50299;49.524;8.536;2022-10-16T06:13:37;100388.06;;;13.81;77.18
64053;BME280;50299;49.524;8.536;2022-10-16T06:16:04;100395.53;;;13.93;76.98
64053;BME280;50299;49.524;8.536;2022-10-16T06:18:30;100396.34;;;13.93;77.19
64053;BME280;50299;49.524;8.536;2022-10-16T06:20:57;100398.06;;;13.98;73.42
64053;BME280;50299;49.524;8.536;2022-10-16T06:23:25;100401.78;;;13.90;73.30
64053;BME280;50299;49.524;8.536;2022-10-16T06:25:52;100411.16;;;13.97;75.39
64053;BME280;50299;49.524;8.536;2022-10-16T06:28:18;100412.69;;;13.95;76.61
64053;BME280;50299;49.524;8.536;2022-10-16T06:30:45;100412.75;;;13.98;77.45
64053;BME280;50299;49.524;8.536;2022-10-16T06:33:12;100414.44;;;14.15;77.07
64053;BME280;50299;49.524;8.536;2022-10-16T06:35:38;100409.53;;;14.24;76.31
64053;BME280;50299;49.524;8.536;2022-10-16T06:38:05;100416.44;;;14.30;73.17
64053;BME280;50299;49.524;8.536;2022-10-16T06:40:31;100407.03;;;14.19;74.68
64053;BME280;50299;49.524;8.536;2022-10-16T06:43:00;100414.53;;;14.19;74.92
64053;BME280;50299;49.524;8.536;2022-10-16T06:45:26;100417.84;;;14.37;75.52
64053;BME280;50299;49.524;8.536;2022-10-16T06:47:53;100420.63;;;14.37;75.31
64053;BME280;50299;49.524;8.536;2022-10-16T06:50:19;100419.28;;;14.46;74.98
64053;BME280;50299;49.524;8.536;2022-10-16T06:52:45;100424.41;;;14.44;74.58
64053;BME280;50299;49.524;8.536;2022-10-16T06:55:12;100438.31;;;14.44;74.26
64053;BME280;50299;49.524;8.536;2022-10-16T06:57:38;100430.22;;;14.39;73.31
64053;BME280;50299;49.524;8.536;2022-10-16T07:00:05;100439.31;;;14.52;74.12
64053;BME280;50299;49.524;8.536;2022-10-16T07:02:32;100443.88;;;14.44;73.78
64053;BME280;50299;49.524;8.536;2022-10-16T07:04:58;100443.97;;;14.48;73.06
64053;BME280;50299;49.524;8.536;2022-10-16T07:07:25;100456.88;;;14.56;74.68
64053;BME280;50299;49.524;8.536;2022-10-16T07:09:55;100452.91;;;14.69;76.01
64053;BME280;50299;49.524;8.536;2022-10-16T07:12:21;100453.78;;;14.73;75.46
64053;BME280;50299;49.524;8.536;2022-10-16T07:14:52;100453.06;;;14.76;74.62
64053;BME280;50299;49.524;8.536;2022-10-16T07:17:20;100464.94;;;14.73;72.71
64053;BME280;50299;49.524;8.536;2022-10-16T07:19:47;100467.63;;;14.86;74.65
64053;BME280;50299;49.524;8.536;2022-10-16T07:22:13;100475.78;;;14.78;74.54
64053;BME280;50299;49.524;8.536;2022-10-16T07:24:39;100483.59;;;14.73;71.91
64053;BME280;50299;49.524;8.536;2022-10-16T07:27:06;100484.41;;;14.73;71.29
64053;BME280;50299;49.524;8.536;2022-10-16T07:29:32;100480.66;;;14.82;76.53
64053;BME280;50299;49.524;8.536;2022-10-16T07:31:59;100487.34;;;14.80;74.09
64053;BME280;50299;49.524;8.536;2022-10-16T07:34:25;100500.38;;;14.76;71.89
64053;BME280;50299;49.524;8.536;2022-10-16T07:36:53;100499.34;;;14.53;72.25
64053;BME280;50299;49.524;8.536;2022-10-16T07:39:19;100501.72;;;14.39;73.33
64053;BME280;50299;49.524;8.536;2022-10-16T07:41:45;100501.28;;;14.37;75.56
64053;BME280;50299;49.524;8.536;2022-10-16T07:44:12;100505.78;;;14.41;72.59
64053;BME280;50299;49.524;8.536;2022-10-16T07:46:38;100501.22;;;14.49;74.55
64053;BME280;50299;49.524;8.536;2022-10-16T07:49:05;100501.50;;;14.31;73.12
64053;BME280;50299;49.524;8.536;2022-10-16T07:51:31;100511.53;;;14.08;74.72
64053;BME280;50299;49.524;8.536;2022-10-16T07:53:59;100502.34;;;14.20;75.29
64053;BME280;50299;49.524;8.536;2022-10-16T07:56:25;100501.88;;;14.18;76.58
64053;BME280;50299;49.524;8.536;2022-10-16T07:58:55;100506.38;;;14.35;75.29
64053;BME280;50299;49.524;8.536;2022-10-16T08:01:24;100511.28;;;14.53;76.02
64053;BME280;50299;49.524;8.536;2022-10-16T08:03:52;100523.31;;;14.17;75.47
64053;BME280;50299;49.524;8.536;2022-10-16T08:06:20;100528.44;;;14.15;86.90
64053;BME280;50299;49.524;8.536;2022-10-16T08:08:53;100520.28;;;13.82;91.23
64053;BME280;50299;49.524;8.536;2022-10-16T08:11:20;100523.75;;;13.54;90.82
64053;BME280;50299;49.524;8.536;2022-10-16T08:13:46;100520.84;;;13.39;92.06
64053;BME280;50299;49.524;8.536;2022-10-16T08:16:12;100522.69;;;13.22;91.65
64053;BME280;50299;49.524;8.536;2022-10-16T08:18:40;100530.66;;;13.24;93.70
64053;BME280;50299;49.524;8.536;2022-10-16T08:21:11;100531.13;;;13.26;92.98
64053;BME280;50299;49.524;8.536;2022-10-16T08:23:43;100529.75;;;13.44;91.77
64053;BME280;50299;49.524;8.536;2022-10-16T08:26:20;100526.41;;;13.63;93.84
64053;BME280;50299;49.524;8.536;2022-10-16T08:28:49;100527.91;;;13.73;91.73
64053;BME280;50299;49.524;8.536;2022-10-16T08:31:17;100536.84;;;13.78;91.55
64053;BME280;50299;49.524;8.536;2022-10-16T08:33:44;100545.72;;;13.84;89.45
64053;BME280;50299;49.524;8.536;2022-10-16T08:36:14;100554.06;;;13.96;89.58
64053;BME280;50299;49.524;8.536;2022-10-16T08:38:41;100561.09;;;14.06;87.29
64053;BME280;50299;49.524;8.536;2022-10-16T08:41:20;100549.59;;;14.20;88.40
64053;BME280;50299;49.524;8.536;2022-10-16T08:47:22;100592.38;;;13.54;82.85
64053;BME280;50299;49.524;8.536;2022-10-16T08:49:59;100610.53;;;13.51;83.18
64053;BME280;50299;49.524;8.536;2022-10-16T08:52:34;100684.59;;;12.72;85.98
64053;BME280;50299;49.524;8.536;2022-10-16T08:55:03;100648.69;;;11.49;100.00
64053;BME280;50299;49.524;8.536;2022-10-16T08:57:30;100615.66;;;11.91;100.00
64053;BME280;50299;49.524;8.536;2022-10-16T09:00:12;100624.31;;;12.40;100.00
64053;BME280;50299;49.524;8.536;2022-10-16T09:02:59;100621.03;;;12.38;100.00
64053;BME280;50299;49.524;8.536;2022-10-16T09:05:44;100604.38;;;11.96;98.54
64053;BME280;50299;49.524;8.536;2022-10-16T09:08:28;100617.59;;;12.41;100.00
64053;BME280;50299;49.524;8.536;2022-10-16T09:11:09;100617.63;;;12.62;100.00
64053;BME280;50299;49.524;8.536;2022-10-16T09:14:00;100624.19;;;13.11;100.00
64053;BME280;50299;49.524;8.536;2022-10-16T09:16:35;100621.53;;;13.60;100.00
64053;BME280;50299;49.524;8.536;2022-10-16T09:19:18;100633.84;;;14.08;100.00
64053;BME280;50299;49.524;8.536;2022-10-16T09:21:48;100636.34;;;14.25;100.00
64053;BME280;50299;49.524;8.536;2022-10-16T09:24:17;100631.34;;;14.31;99.57
64053;BME280;50299;49.524;8.536;2022-10-16T09:26:46;100626.06;;;14.01;97.67
64053;BME280;50299;49.524;8.536;2022-10-16T09:29:13;100611.72;;;14.12;98.83
64053;BME280;50299;49.524;8.536;2022-10-16T09:31:40;100611.72;;;14.12;99.23
64053;BME280;50299;49.524;8.536;2022-10-16T09:36:45;100632.47;;;14.67;100.00
64053;BME280;50299;49.524;8.536;2022-10-16T09:39:12;100626.44;;;14.93;100.00
64053;BME280;50299;49.524;8.536;2022-10-16T09:41:41;100616.41;;;15.04;99.61
64053;BME280;50299;49.524;8.536;2022-10-16T09:44:23;100625.44;;;15.13;99.40
64053;BME280;50299;49.524;8.536;2022-10-16T09:47:01;100631.63;;;15.35;99.37
64053;BME280;50299;49.524;8.536;2022-10-16T09:49:32;100627.78;;;15.55;99.68
64053;BME280;50299;49.524;8.536;2022-10-16T09:52:12;100619.13;;;15.44;96.82
64053;BME280;50299;49.524;8.536;2022-10-16T09:54:52;100640.22;;;15.29;96.84
64053;BME280;50299;49.524;8.536;2022-10-16T09:57:19;100631.72;;;15.10;95.15
64053;BME280;50299;49.524;8.536;2022-10-16T09:59:51;100641.03;;;14.74;93.73
64053;BME280;50299;49.524;8.536;2022-10-16T10:02:24;100638.47;;;14.81;96.74
64053;BME280;50299;49.524;8.536;2022-10-16T10:04:54;100638.13;;;14.70;95.62
64053;BME280;50299;49.524;8.536;2022-10-16T10:07:26;100636.38;;;14.78;96.66
64053;BME280;50299;49.524;8.536;2022-10-16T10:09:56;100644.94;;;15.13;100.00
64053;BME280;50299;49.524;8.536;2022-10-16T10:12:29;100641.41;;;15.44;100.00
64053;BME280;50299;49.524;8.536;2022-10-16T10:15:06;100639.63;;;15.84;100.00
64053;BME280;50299;49.524;8.536;2022-10-16T10:17:33;100629.34;;;15.88;98.90
64053;BME280;50299;49.524;8.536;2022-10-16T10:20:24;100627.50;;;15.92;97.94
64053;BME280;50299;49.524;8.536;2022-10-16T10:22:52;100642.84;;;15.86;98.86
64053;BME280;50299;49.524;8.536;2022-10-16T10:28:28;100650.34;;;15.97;97.24
64053;BME280;50299;49.524;8.536;2022-10-16T10:31:09;100650.53;;;16.05;96.93
64053;BME280;50299;49.524;8.536;2022-10-16T10:36:37;100639.25;;;15.69;93.74
64053;BME280;50299;49.524;8.536;2022-10-16T10:39:08;100636.28;;;15.62;93.51
64053;BME280;50299;49.524;8.536;2022-10-16T10:44:42;100634.69;;;15.77;95.45
64053;BME280;50299;49.524;8.536;2022-10-16T10:50:25;100630.66;;;15.90;90.22
64053;BME280;50299;49.524;8.536;2022-10-16T10:53:12;100634.94;;;16.03;85.62
64053;BME280;50299;49.524;8.536;2022-10-16T10:58:39;100625.41;;;16.75;83.73
64053;BME280;50299;49.524;8.536;2022-10-16T11:01:24;100630.84;;;17.30;75.49
64053;BME280;50299;49.524;8.536;2022-10-16T11:04:02;100625.44;;;17.17;72.85
64053;BME280;50299;49.524;8.536;2022-10-16T11:06:39;100631.00;;;17.37;71.08
64053;BME280;50299;49.524;8.536;2022-10-16T11:09:20;100631.88;;;17.87;73.11
64053;BME280;50299;49.524;8.536;2022-10-16T11:14:46;100630.34;;;18.16;70.59
64053;BME280;50299;49.524;8.536;2022-10-16T11:17:26;100630.38;;;18.46;65.02
64053;BME280;50299;49.524;8.536;2022-10-16T11:20:02;100628.97;;;18.89;64.99
64053;BME280;50299;49.524;8.536;2022-10-16T11:22:40;100626.84;;;19.13;64.35
64053;BME280;50299;49.524;8.536;2022-10-16T11:25:23;100636.59;;;19.26;60.95
64053;BME280;50299;49.524;8.536;2022-10-16T11:27:58;100637.38;;;18.89;60.71
64053;BME280;50299;49.524;8.536;2022-10-16T11:30:30;100638.22;;;18.93;60.05
64053;BME280;50299;49.524;8.536;2022-10-16T11:33:13;100641.19;;;19.08;59.42
64053;BME280;50299;49.524;8.536;2022-10-16T11:41:28;100619.59;;;19.49;59.40
64053;BME280;50299;49.524;8.536;2022-10-16T11:44:35;100619.44;;;19.76;58.56
64053;BME280;50299;49.524;8.536;2022-10-16T11:47:23;100625.56;;;19.88;54.47
64053;BME280;50299;49.524;8.536;2022-10-16T11:50:33;100621.59;;;19.48;58.70
64053;BME280;50299;49.524;8.536;2022-10-16T11:53:25;100630.50;;;19.58;56.54
64053;BME280;50299;49.524;8.536;2022-10-16T11:55:55;100624.56;;;19.63;58.56
64053;BME280;50299;49.524;8.536;2022-10-16T11:58:41;100629.03;;;19.71;55.05
64053;BME280;50299;49.524;8.536;2022-10-16T12:01:29;100622.41;;;19.49;59.13
64053;BME280;50299;49.524;8.536;2022-10-16T12:06:46;100618.44;;;19.54;55.96
64053;BME280;50299;49.524;8.536;2022-10-16T12:09:36;100621.13;;;19.84;55.49
64053;BME280;50299;49.524;8.536;2022-10-16T12:12:04;100625.22;;;19.97;58.89
64053;BME280;50299;49.524;8.536;2022-10-16T12:14:36;100631.00;;;19.67;56.72
64053;BME280;50299;49.524;8.536;2022-10-16T12:17:35;100622.81;;;19.47;55.32
64053;BME280;50299;49.524;8.536;2022-10-16T12:22:47;100621.50;;;19.38;56.47
64053;BME280;50299;49.524;8.536;2022-10-16T12:25:38;100620.13;;;19.24;59.20
64053;BME280;50299;49.524;8.536;2022-10-16T12:30:42;100611.47;;;18.99;58.24
64053;BME280;50299;49.524;8.536;2022-10-16T12:33:28;100611.09;;;19.01;59.73
64053;BME280;50299;49.524;8.536;2022-10-16T12:35:58;100608.59;;;19.30;63.64
64053;BME280;50299;49.524;8.536;2022-10-16T12:38:28;100613.53;;;19.43;59.83
64053;BME280;50299;49.524;8.536;2022-10-16T12:41:05;100619.28;;;19.58;55.96
64053;BME280;50299;49.524;8.536;2022-10-16T12:43:41;100617.81;;;19.71;59.52
64053;BME280;50299;49.524;8.536;2022-10-16T12:48:39;100615.97;;;19.93;59.85
64053;BME280;50299;49.524;8.536;2022-10-16T12:51:24;100611.72;;;20.10;57.64
64053;BME280;50299;49.524;8.536;2022-10-16T12:56:55;100611.13;;;20.52;55.33
64053;BME280;50299;49.524;8.536;2022-10-16T12:59:54;100609.56;;;20.58;52.86
64053;BME280;50299;49.524;8.536;2022-10-16T13:05:41;100612.63;;;20.32;54.56
64053;BME280;50299;49.524;8.536;2022-10-16T13:10:59;100618.94;;;20.14;55.33
64053;BME280;50299;49.524;8.536;2022-10-16T13:16:42;100614.31;;;19.85;56.24
64053;BME280;50299;49.524;8.536;2022-10-16T13:19:27;100616.28;;;19.81;55.57
64053;BME280;50299;49.524;8.536;2022-10-16T13:27:55;100616.34;;;18.72;55.77
64053;BME280;50299;49.524;8.536;2022-10-16T13:30:27;100626.59;;;18.61;57.81
64053;BME280;50299;49.524;8.536;2022-10-16T13:33:15;100628.09;;;18.55;58.17
64053;BME280;50299;49.524;8.536;2022-10-16T13:35:53;100637.03;;;18.64;58.68
64053;BME280;50299;49.524;8.536;2022-10-16T13:38:21;100624.13;;;18.56;57.82
64053;BME280;50299;49.524;8.536;2022-10-16T13:40:58;100624.03;;;18.49;56.84
64053;BME280;50299;49.524;8.536;2022-10-16T13:43:45;100620.84;;;18.50;57.58
64053;BME280;50299;49.524;8.536;2022-10-16T13:46:21;100625.47;;;18.36;57.99
64053;BME280;50299;49.524;8.536;2022-10-16T13:49:10;100628.38;;;18.43;58.89
64053;BME280;50299;49.524;8.536;2022-10-16T13:51:38;100627.59;;;18.46;59.72
64053;BME280;50299;49.524;8.536;2022-10-16T13:54:04;100616.88;;;18.52;58.67
64053;BME280;50299;49.524;8.536;2022-10-16T13:56:32;100615.56;;;18.75;60.30
64053;BME280;50299;49.524;8.536;2022-10-16T13:59:05;100613.44;;;18.65;58.80
64053;BME280;50299;49.524;8.536;2022-10-16T14:01:34;100630.28;;;18.69;57.83
64053;BME280;50299;49.524;8.536;2022-10-16T14:04:08;100633.16;;;18.72;57.37
64053;BME280;50299;49.524;8.536;2022-10-16T14:06:36;100634.44;;;18.79;61.77
64053;BME280;50299;49.524;8.536;2022-10-16T14:09:08;100620.25;;;18.64;59.77
64053;BME280;50299;49.524;8.536;2022-10-16T14:11:48;100635.41;;;18.63;59.45
64053;BME280;50299;49.524;8.536;2022-10-16T14:14:15;100625.09;;;18.71;58.00
64053;BME280;50299;49.524;8.536;2022-10-16T14:16:43;100632.34;;;18.75;59.38
64053;BME280;50299;49.524;8.536;2022-10-16T14:19:18;100626.16;;;18.59;57.94
64053;BME280;50299;49.524;8.536;2022-10-16T14:21:45;100612.16;;;18.59;60.56